TimeCDT,TemperatureF,Dew PointF,Humidity,Sea Level PressureIn,VisibilityMPH,Wind Direction,Wind SpeedMPH,Gust SpeedMPH,PrecipitationIn,Events,Conditions,WindDirDegrees,DateUTC
12:52 AM,64.0,62.1,93,29.80,9.0,South,13.8,21.9,0.03,Rain,Light Rain,180,2013-10-31 05:52:00
1:49 AM,64.4,62.6,94,29.77,6.0,South,12.7,-,0.00,Rain,Light Rain,180,2013-10-31 06:49:00
1:52 AM,64.0,62.1,93,29.77,5.0,South,11.5,-,0.02,Rain,Heavy Rain,180,2013-10-31 06:52:00
2:07 AM,64.4,62.6,94,29.77,4.0,South,12.7,-,0.06,Rain,Light Rain,190,2013-10-31 07:07:00
2:36 AM,62.6,62.6,100,29.75,6.0,SSW,17.3,26.5,0.11,Rain,Light Rain,200,2013-10-31 07:36:00
2:44 AM,62.6,62.6,100,29.74,6.0,SSW,19.6,27.6,0.12,Rain,Light Rain,200,2013-10-31 07:44:00
2:52 AM,63.0,62.1,97,29.74,9.0,South,19.6,-,0.12,Rain,Light Rain,190,2013-10-31 07:52:00
3:52 AM,62.1,61.0,96,29.69,10.0,South,18.4,25.3,0.01,Rain,Light Rain,190,2013-10-31 08:52:00
4:52 AM,62.1,61.0,96,29.69,10.0,SSW,13.8,21.9,0.01,Rain,Light Rain,200,2013-10-31 09:52:00
5:52 AM,62.1,61.0,96,29.68,10.0,South,11.5,-,0.04,Rain,Light Rain,190,2013-10-31 10:52:00
6:04 AM,62.6,60.8,94,29.67,10.0,SSW,15.0,-,0.01,Rain,Light Rain,200,2013-10-31 11:04:00
6:38 AM,62.6,60.8,94,29.67,10.0,SSW,11.5,-,0.03,Rain,Light Rain,200,2013-10-31 11:38:00
6:52 AM,62.1,60.1,93,29.66,8.0,SSW,12.7,-,0.04,Rain,Rain,200,2013-10-31 11:52:00
7:18 AM,62.6,60.8,94,29.65,8.0,SSW,8.1,18.4,0.04,Rain,Rain,200,2013-10-31 12:18:00
7:33 AM,62.6,60.8,94,29.65,7.0,South,10.4,-,0.08,Rain,Rain,180,2013-10-31 12:33:00
7:52 AM,62.1,61.0,96,29.63,5.0,South,10.4,-,0.13,Rain,Heavy Rain,180,2013-10-31 12:52:00
8:52 AM,61.0,60.1,97,29.61,5.0,South,8.1,-,0.28,Rain,Rain,180,2013-10-31 13:52:00
9:14 AM,60.8,60.8,100,29.60,4.0,SSE,6.9,-,0.04,Rain,Rain,150,2013-10-31 14:14:00
9:31 AM,60.8,60.8,100,29.58,7.0,SSE,6.9,-,0.06,Rain,Rain,150,2013-10-31 14:31:00
9:52 AM,61.0,60.1,97,29.56,10.0,SSE,6.9,-,0.08,Rain,Light Rain,150,2013-10-31 14:52:00
10:23 AM,62.6,60.8,94,29.54,1.8,SSE,12.7,-,0.06,Rain,Heavy Rain,160,2013-10-31 15:23:00
10:30 AM,62.6,60.8,94,29.52,3.0,South,13.8,-,0.08,Rain,Light Rain,170,2013-10-31 15:30:00
10:52 AM,63.0,62.1,97,29.51,4.0,South,15.0,-,0.12,Rain,Light Rain,170,2013-10-31 15:52:00
11:52 AM,62.1,61.0,96,29.46,4.0,South,17.3,-,0.06,,Overcast,180,2013-10-31 16:52:00
12:52 PM,63.0,62.1,97,29.41,8.0,South,18.4,26.5,0.00,Rain,Light Rain,180,2013-10-31 17:52:00
1:52 PM,64.9,62.1,90,29.34,10.0,South,23.0,29.9,0.01,,Overcast,190,2013-10-31 18:52:00
1:56 PM,64.4,62.6,94,29.38,2.0,West,31.1,39.1,0.00,Rain,Heavy Rain,270,2013-10-31 18:56:00
2:00 PM,59.0,57.2,94,29.37,1.5,WNW,24.2,39.1,0.04,Rain,Heavy Rain,290,2013-10-31 19:00:00
2:04 PM,59.0,57.2,94,29.38,1.2,NW,21.9,39.1,0.09,Rain,Light Rain,310,2013-10-31 19:04:00
2:06 PM,59.0,57.2,94,29.38,3.0,WNW,20.7,35.7,0.09,Rain,Light Rain,290,2013-10-31 19:06:00
2:19 PM,59.0,57.2,94,29.37,10.0,West,9.2,20.7,0.10,Rain,Light Rain,280,2013-10-31 19:19:00
2:52 PM,60.1,57.0,90,29.37,10.0,WSW,4.6,-,0.11,,Overcast,250,2013-10-31 19:52:00
3:34 PM,59.0,57.2,94,29.39,10.0,West,11.5,-,0.00,,Overcast,280,2013-10-31 20:34:00
3:43 PM,59.0,57.2,94,29.40,10.0,West,9.2,-,0.00,,Overcast,270,2013-10-31 20:43:00
3:52 PM,59.0,57.0,93,29.38,10.0,West,6.9,-,0.00,,Overcast,280,2013-10-31 20:52:00
4:01 PM,60.8,57.2,88,29.37,10.0,WNW,5.8,-,N/A,,Overcast,290,2013-10-31 21:01:00
4:32 PM,60.8,57.2,88,29.37,10.0,West,8.1,-,N/A,,Overcast,280,2013-10-31 21:32:00
4:52 PM,60.1,57.0,90,29.38,10.0,West,9.2,-,N/A,,Overcast,260,2013-10-31 21:52:00
4:59 PM,59.0,57.2,94,29.39,10.0,West,11.5,-,N/A,,Overcast,270,2013-10-31 21:59:00
5:08 PM,57.2,55.4,94,29.40,4.0,NW,18.4,21.9,0.00,Rain,Light Rain,320,2013-10-31 22:08:00
5:18 PM,55.4,55.4,100,29.40,2.5,NW,16.1,-,0.01,Rain,Rain,310,2013-10-31 22:18:00
5:41 PM,53.6,53.6,100,29.41,10.0,NW,15.0,24.2,0.04,Rain,Light Rain,320,2013-10-31 22:41:00
5:49 PM,53.6,51.8,94,29.42,10.0,WNW,12.7,-,0.04,Rain,Light Rain,300,2013-10-31 22:49:00
5:52 PM,54.0,52.0,93,29.42,10.0,WNW,11.5,-,0.04,Rain,Light Rain,300,2013-10-31 22:52:00
6:47 PM,51.8,48.2,88,29.46,10.0,WNW,15.0,26.5,0.03,,Overcast,300,2013-10-31 23:47:00
6:52 PM,51.1,48.9,92,29.46,10.0,WNW,12.7,21.9,0.03,,Overcast,300,2013-10-31 23:52:00
7:21 PM,50.0,48.2,94,29.46,9.0,WNW,11.5,-,0.01,Rain,Light Rain,300,2013-11-01 00:21:00
7:30 PM,50.0,48.2,94,29.46,10.0,WNW,13.8,-,0.01,Rain,Light Rain,300,2013-11-01 00:30:00
7:47 PM,50.0,48.2,94,29.47,10.0,West,15.0,19.6,0.01,,Overcast,270,2013-11-01 00:47:00
7:52 PM,50.0,48.0,93,29.47,10.0,West,13.8,19.6,0.01,,Overcast,280,2013-11-01 00:52:00
8:52 PM,48.0,46.0,93,29.48,10.0,West,8.1,-,N/A,,Overcast,260,2013-11-01 01:52:00
8:54 PM,48.2,46.4,93,29.49,10.0,West,8.1,-,N/A,,Overcast,270,2013-11-01 01:54:00
9:52 PM,48.0,46.0,93,29.54,10.0,West,12.7,-,N/A,,Mostly Cloudy,270,2013-11-01 02:52:00
10:16 PM,48.2,46.4,93,29.55,10.0,West,15.0,-,N/A,,Mostly Cloudy,270,2013-11-01 03:16:00
10:52 PM,46.9,45.0,93,29.57,10.0,West,12.7,-,N/A,,Overcast,270,2013-11-01 03:52:00
11:30 PM,46.4,44.6,93,29.59,10.0,WSW,10.4,-,N/A,,Overcast,250,2013-11-01 04:30:00
11:52 PM,46.9,45.0,93,29.59,10.0,WSW,9.2,-,N/A,,Overcast,240,2013-11-01 04:52:00